Jordan, Minnesota
Current Conditions -  °F | °C
As of 1:53 AM on Sunday 26 Oct 2014 (Local Time) from KFCM Reporting Station
Clear Clear  
Wind Chill: 40°   Ceiling: Unl
Heat Index: 40°   Visibility: 10mi
Dew Point: 29°   Wind: 0mph
Humidity: 65%   Direction: NA
Pressure: 30.03"   Gusts: NA
Location:  44.67°N, 93.63°W
Report Text: KFCM 260653Z AUTO 00000KT 10SM CLR 04/M02 A3003 RMK AO2 SLP173 T00441017
Loading
Personal Weather Stations






























Interactive Weather Map
Tropical Storm Tracking
New forecast layout! Learn more

10-Day Weather Forecast

Advertisements
Track Severe Weather on mobile